createdAt,value
2023-03-27T00:00:10.807Z,10.63
2023-03-27T00:02:38.900Z,10.50
2023-03-27T00:05:08.165Z,11.80
2023-03-27T00:07:37.243Z,12.40
2023-03-27T00:10:05.346Z,5.70
2023-03-27T00:12:34.930Z,15.40
2023-03-27T00:15:02.974Z,16.10
2023-03-27T00:17:30.792Z,18.30
2023-03-27T00:19:59.357Z,14.77
2023-03-27T00:22:27.104Z,14.67
2023-03-27T00:24:54.861Z,11.80
2023-03-27T00:27:22.636Z,9.73
2023-03-27T00:29:53.996Z,9.93
2023-03-27T00:32:22.173Z,9.87
2023-03-27T00:34:50.019Z,10.83
2023-03-27T00:37:18.146Z,14.27
2023-03-27T00:39:50.069Z,14.53
2023-03-27T00:42:22.994Z,8.10
2023-03-27T00:44:53.289Z,8.73
2023-03-27T00:47:34.584Z,13.83
2023-03-27T00:50:04.991Z,11.00
2023-03-27T00:52:33.310Z,11.87
2023-03-27T00:55:04.053Z,9.90
2023-03-27T00:57:32.489Z,9.77
2023-03-27T01:00:08.936Z,4.23
2023-03-27T01:02:37.550Z,12.37
2023-03-27T01:05:06.499Z,9.67
2023-03-27T01:07:34.523Z,12.70
2023-03-27T01:10:02.605Z,10.73
2023-03-27T01:12:39.143Z,11.27
2023-03-27T01:15:18.662Z,14.00
2023-03-27T01:17:58.217Z,13.73
2023-03-27T01:20:36.815Z,7.93
2023-03-27T01:24:00.253Z,10.30
2023-03-27T01:26:51.824Z,8.67
2023-03-27T01:29:22.999Z,8.10
2023-03-27T01:32:08.408Z,16.40
2023-03-27T01:35:15.769Z,15.43
2023-03-27T01:38:00.123Z,10.50
2023-03-27T01:40:32.134Z,10.57
2023-03-27T01:43:02.306Z,7.97
2023-03-27T01:45:37.538Z,13.00
2023-03-27T01:48:08.601Z,14.90
2023-03-27T01:50:40.522Z,12.30
2023-03-27T01:53:13.543Z,14.00
2023-03-27T01:55:46.995Z,9.10
2023-03-27T01:58:16.073Z,13.03
2023-03-27T02:00:52.263Z,10.83
2023-03-27T02:03:35.247Z,8.77
2023-03-27T02:06:07.761Z,13.27
2023-03-27T02:08:39.927Z,8.07
2023-03-27T02:11:09.347Z,12.30
2023-03-27T02:13:39.865Z,13.87
2023-03-27T02:16:09.334Z,8.33
2023-03-27T02:18:39.286Z,7.83
2023-03-27T02:21:07.513Z,10.07
2023-03-27T02:23:38.091Z,9.70
2023-03-27T02:26:06.231Z,13.67
2023-03-27T02:29:04.178Z,13.43
2023-03-27T02:31:50.932Z,9.83
2023-03-27T02:34:58.732Z,8.00
2023-03-27T02:37:32.315Z,7.90
2023-03-27T02:40:13.658Z,7.23
2023-03-27T02:42:46.829Z,11.03
2023-03-27T02:45:20.928Z,9.63
2023-03-27T02:47:52.120Z,12.30
2023-03-27T02:50:22.089Z,13.90
2023-03-27T02:52:53.256Z,11.10
2023-03-27T02:55:25.277Z,13.70
2023-03-27T02:57:56.662Z,8.20
2023-03-27T03:00:28.448Z,9.07
2023-03-27T03:03:01.744Z,10.03
2023-03-27T03:05:29.747Z,7.37
2023-03-27T03:07:58.163Z,10.23
2023-03-27T03:10:26.557Z,5.20
2023-03-27T03:12:54.352Z,13.87
2023-03-27T03:15:22.070Z,9.73
2023-03-27T03:17:51.252Z,12.67
2023-03-27T03:20:19.056Z,5.87
2023-03-27T03:22:46.814Z,12.70
2023-03-27T03:25:14.879Z,6.57
2023-03-27T03:27:44.245Z,12.13
2023-03-27T03:30:16.674Z,9.83
2023-03-27T03:32:47.441Z,12.30
2023-03-27T03:35:16.710Z,5.97
2023-03-27T03:37:51.114Z,7.53
2023-03-27T03:40:19.856Z,6.17
2023-03-27T03:42:47.985Z,11.20
2023-03-27T03:45:16.060Z,8.47
2023-03-27T03:47:44.153Z,11.67
2023-03-27T03:50:12.569Z,11.53
2023-03-27T03:52:41.921Z,11.67
2023-03-27T03:55:11.756Z,7.13
2023-03-27T03:57:39.641Z,12.27
2023-03-27T04:00:12.153Z,12.50
2023-03-27T04:02:41.429Z,4.27
2023-03-27T04:05:10.308Z,9.33
2023-03-27T04:07:40.184Z,8.00
2023-03-27T04:10:10.841Z,17.33
2023-03-27T04:12:38.607Z,10.83
2023-03-27T04:15:07.739Z,13.10
2023-03-27T04:17:35.525Z,8.47
2023-03-27T04:20:05.291Z,8.63
2023-03-27T04:22:37.956Z,11.67
2023-03-27T04:25:07.062Z,14.77
2023-03-27T04:27:36.755Z,7.93
2023-03-27T04:30:04.973Z,8.07
2023-03-27T04:32:32.786Z,9.27
2023-03-27T04:35:00.926Z,6.77
2023-03-27T04:37:28.889Z,13.30
2023-03-27T04:39:56.632Z,12.03
2023-03-27T04:42:24.327Z,8.73
2023-03-27T04:44:53.448Z,13.93
2023-03-27T04:47:21.472Z,15.07
2023-03-27T04:49:51.186Z,20.43
2023-03-27T04:52:19.327Z,15.97
2023-03-27T04:54:48.354Z,13.13
2023-03-27T04:57:18.985Z,11.70
2023-03-27T04:59:46.917Z,10.13
2023-03-27T05:02:16.492Z,15.00
2023-03-27T05:04:44.265Z,14.87
2023-03-27T05:07:12.513Z,6.93
2023-03-27T05:09:40.279Z,10.53
2023-03-27T05:12:08.758Z,13.67
2023-03-27T05:14:36.795Z,11.67
2023-03-27T05:17:04.617Z,10.77
2023-03-27T05:19:33.762Z,11.77
2023-03-27T05:22:01.730Z,41.90
2023-03-27T05:24:29.524Z,40.57
2023-03-27T05:26:57.276Z,12.90
2023-03-27T05:29:25.886Z,13.33
2023-03-27T05:31:53.898Z,11.70
2023-03-27T05:34:21.899Z,13.17
2023-03-27T05:36:51.284Z,13.00
2023-03-27T05:39:19.903Z,14.37
2023-03-27T05:41:47.635Z,14.07
2023-03-27T05:44:15.454Z,14.90
2023-03-27T05:46:43.633Z,14.43
2023-03-27T05:49:11.429Z,17.00
2023-03-27T05:51:39.170Z,14.10
2023-03-27T05:54:16.563Z,12.80
2023-03-27T05:56:44.365Z,11.40
2023-03-27T05:59:13.059Z,13.47
2023-03-27T06:01:40.810Z,13.37
2023-03-27T06:04:09.333Z,7.87
2023-03-27T06:06:37.288Z,12.80
2023-03-27T06:09:05.978Z,17.23
2023-03-27T06:11:35.176Z,11.03
2023-03-27T06:14:02.962Z,10.47
2023-03-27T06:16:30.787Z,10.07
2023-03-27T06:18:59.018Z,16.03
2023-03-27T06:21:26.794Z,14.77
2023-03-27T06:23:56.334Z,9.70
2023-03-27T06:26:24.132Z,17.43
2023-03-27T06:28:53.408Z,14.10
2023-03-27T06:31:22.114Z,16.17
2023-03-27T06:33:50.246Z,10.93
2023-03-27T06:36:18.181Z,14.13
2023-03-27T06:38:46.013Z,11.30
2023-03-27T06:41:13.885Z,15.73
2023-03-27T06:43:41.582Z,17.43
2023-03-27T06:46:10.783Z,10.90
2023-03-27T06:48:39.578Z,15.70
2023-03-27T06:51:08.015Z,10.50
2023-03-27T06:53:38.090Z,8.80
2023-03-27T06:56:07.011Z,18.23
2023-03-27T06:58:34.750Z,12.57
2023-03-27T07:01:02.693Z,8.30
2023-03-27T07:03:31.808Z,10.70
2023-03-27T07:06:00.696Z,13.30
2023-03-27T07:08:28.786Z,15.27
2023-03-27T07:11:10.906Z,8.40
2023-03-27T07:13:46.194Z,14.43
2023-03-27T07:16:13.977Z,14.10
2023-03-27T07:18:43.072Z,20.67
2023-03-27T07:21:12.940Z,12.93
2023-03-27T07:23:40.924Z,13.40
2023-03-27T07:26:08.696Z,9.97
2023-03-27T07:28:38.475Z,14.17
2023-03-27T07:31:27.609Z,13.47
2023-03-27T07:34:00.251Z,17.53
2023-03-27T07:36:28.872Z,15.33
2023-03-27T07:38:56.905Z,10.73
2023-03-27T07:41:24.687Z,14.13
2023-03-27T07:43:52.423Z,11.87
2023-03-27T07:46:20.263Z,9.10
2023-03-27T07:48:48.084Z,12.40
2023-03-27T07:51:17.872Z,12.60
2023-03-27T07:53:45.746Z,10.83
2023-03-27T07:56:13.979Z,12.60
2023-03-27T07:58:42.652Z,13.77
2023-03-27T08:01:11.630Z,17.57
2023-03-27T08:03:39.813Z,12.87
2023-03-27T08:06:08.729Z,11.17
2023-03-27T08:08:37.931Z,10.93
2023-03-27T08:11:09.623Z,9.80
2023-03-27T08:13:41.443Z,8.50
2023-03-27T08:16:10.770Z,17.37
2023-03-27T08:18:38.948Z,10.17
2023-03-27T08:21:08.488Z,10.23
2023-03-27T08:23:38.254Z,8.93
2023-03-27T08:26:06.857Z,12.27
2023-03-27T08:28:36.013Z,6.17
2023-03-27T08:31:10.286Z,9.33
2023-03-27T08:33:38.194Z,10.73
2023-03-27T08:36:08.207Z,11.13
2023-03-27T08:38:39.563Z,5.90
2023-03-27T08:41:08.089Z,10.50
2023-03-27T08:43:38.780Z,12.83
2023-03-27T08:46:08.486Z,12.07
2023-03-27T08:48:41.245Z,13.13
2023-03-27T08:51:12.287Z,8.23
2023-03-27T08:53:46.136Z,10.80
2023-03-27T08:56:16.020Z,9.47
2023-03-27T08:58:44.043Z,11.40
2023-03-27T09:01:16.584Z,8.17
2023-03-27T09:03:48.383Z,4.50
2023-03-27T09:06:24.972Z,11.03
2023-03-27T09:08:58.408Z,10.43
2023-03-27T09:11:34.141Z,9.37
2023-03-27T09:14:02.643Z,6.03
2023-03-27T09:16:31.971Z,14.30
2023-03-27T09:19:03.422Z,5.93
2023-03-27T09:21:37.658Z,8.73
2023-03-27T09:24:10.174Z,11.93
2023-03-27T09:26:38.453Z,9.93
2023-03-27T09:29:14.033Z,8.20
2023-03-27T09:31:49.754Z,8.17
2023-03-27T09:34:24.624Z,4.27
2023-03-27T09:36:52.567Z,8.17
2023-03-27T09:39:26.877Z,5.23
2023-03-27T09:41:56.558Z,2.87
2023-03-27T09:44:26.418Z,3.87
2023-03-27T09:46:58.927Z,6.03
2023-03-27T09:49:26.995Z,4.43
2023-03-27T09:51:56.716Z,5.50
2023-03-27T09:54:29.040Z,6.97
2023-03-27T09:57:01.929Z,1.53
2023-03-27T09:59:32.279Z,1.80
2023-03-27T10:02:01.642Z,4.77
2023-03-27T10:04:30.256Z,4.70
2023-03-27T10:07:01.674Z,3.33
2023-03-27T10:09:32.122Z,5.17
2023-03-27T10:12:09.208Z,3.77
2023-03-27T10:14:39.877Z,3.93
2023-03-27T10:17:07.996Z,4.73
2023-03-27T10:19:38.735Z,6.87
2023-03-27T10:22:16.675Z,5.23
2023-03-27T10:24:47.312Z,3.53
2023-03-27T10:27:20.386Z,4.63
2023-03-27T10:29:48.127Z,5.37
2023-03-27T10:32:15.910Z,5.23
2023-03-27T10:34:53.277Z,8.03
2023-03-27T10:37:27.408Z,7.73
2023-03-27T10:39:58.768Z,5.90
2023-03-27T10:42:28.143Z,5.40
2023-03-27T10:44:57.604Z,8.83
2023-03-27T10:47:26.923Z,5.03
2023-03-27T10:50:05.033Z,5.83
2023-03-27T10:52:39.856Z,6.70
2023-03-27T10:55:22.692Z,10.97
2023-03-27T10:57:54.438Z,10.87
2023-03-27T11:00:32.578Z,7.87
2023-03-27T11:03:05.297Z,7.60
2023-03-27T11:05:34.974Z,7.73
2023-03-27T11:08:08.523Z,6.73
2023-03-27T11:10:40.620Z,4.63
2023-03-27T11:13:11.796Z,4.60
2023-03-27T11:15:42.378Z,4.50
2023-03-27T11:18:15.584Z,6.00
2023-03-27T11:20:46.133Z,5.37
2023-03-27T11:23:17.759Z,5.90
2023-03-27T11:25:48.206Z,5.03
2023-03-27T11:28:22.420Z,5.43
2023-03-27T11:30:53.181Z,3.40
2023-03-27T11:33:39.617Z,5.33
2023-03-27T11:36:16.158Z,2.93
2023-03-27T11:38:47.581Z,3.10
2023-03-27T11:41:16.948Z,4.17
2023-03-27T11:43:44.948Z,4.33
2023-03-27T11:46:24.482Z,4.60
2023-03-27T11:49:02.626Z,4.27
2023-03-27T11:51:42.775Z,3.03
2023-03-27T11:54:19.230Z,3.43
2023-03-27T11:56:54.495Z,2.13
2023-03-27T11:59:34.529Z,3.63
2023-03-27T12:02:09.146Z,4.57
2023-03-27T12:04:42.568Z,1.50
2023-03-27T12:07:26.378Z,3.13
2023-03-27T12:10:12.896Z,3.03
2023-03-27T12:12:52.094Z,1.93
2023-03-27T12:15:38.273Z,1.73
2023-03-27T12:18:17.861Z,3.00
2023-03-27T12:21:15.466Z,2.27
2023-03-27T12:24:11.770Z,1.23
2023-03-27T12:26:52.385Z,4.03
2023-03-27T12:29:33.751Z,3.17
2023-03-27T12:32:12.495Z,4.63
2023-03-27T12:34:53.301Z,3.83
2023-03-27T12:37:24.475Z,1.80
2023-03-27T12:39:54.066Z,1.53
2023-03-27T12:42:44.504Z,5.17
2023-03-27T12:45:19.551Z,3.67
2023-03-27T12:48:06.396Z,7.07
2023-03-27T12:50:36.949Z,6.73
2023-03-27T12:53:05.631Z,4.83
2023-03-27T12:55:35.676Z,3.63
2023-03-27T12:58:05.487Z,6.33
2023-03-27T13:00:34.838Z,4.87
2023-03-27T13:03:31.380Z,5.93
2023-03-27T13:06:15.528Z,4.23
2023-03-27T13:09:05.701Z,6.33
2023-03-27T13:11:42.389Z,6.60
2023-03-27T13:14:35.526Z,4.57
2023-03-27T13:17:15.133Z,2.63
2023-03-27T13:19:51.879Z,2.27
2023-03-27T13:22:34.706Z,5.33
2023-03-27T13:25:16.038Z,3.50
2023-03-27T13:27:52.569Z,4.37
2023-03-27T13:30:48.844Z,2.80
2023-03-27T13:33:25.153Z,3.83
2023-03-27T13:36:08.176Z,8.47
2023-03-27T13:38:49.190Z,4.97
2023-03-27T13:41:55.828Z,5.57
2023-03-27T13:44:30.036Z,6.43
2023-03-27T13:47:02.341Z,4.20
2023-03-27T13:49:52.327Z,4.73
2023-03-27T13:52:37.790Z,7.53
2023-03-27T13:55:37.128Z,3.70
2023-03-27T13:58:16.072Z,7.17
2023-03-27T14:01:00.529Z,2.97
2023-03-27T14:03:45.273Z,3.03
2023-03-27T14:06:32.621Z,4.97
2023-03-27T14:09:07.956Z,6.30
2023-03-27T14:11:46.311Z,3.80
2023-03-27T14:14:42.678Z,3.67
2023-03-27T14:17:24.200Z,4.17
2023-03-27T14:20:14.213Z,4.27
2023-03-27T14:22:49.285Z,9.07
2023-03-27T14:25:19.880Z,3.03
2023-03-27T14:27:51.615Z,5.67
2023-03-27T14:30:21.745Z,4.73
2023-03-27T14:32:50.149Z,2.23
2023-03-27T14:35:30.242Z,3.53
2023-03-27T14:38:01.185Z,2.27
2023-03-27T14:40:32.414Z,3.20
2023-03-27T14:43:02.035Z,3.67
2023-03-27T14:45:33.084Z,3.27
2023-03-27T14:48:03.828Z,6.73
2023-03-27T14:50:34.505Z,5.13
2023-03-27T14:53:08.940Z,3.07
2023-03-27T14:55:38.313Z,2.23
2023-03-27T14:58:11.475Z,2.23
2023-03-27T15:00:41.193Z,3.33
2023-03-27T15:03:14.657Z,5.13
2023-03-27T15:06:00.790Z,2.80
2023-03-27T15:08:33.968Z,2.53
2023-03-27T15:11:01.760Z,3.23
2023-03-27T15:13:35.376Z,2.87
2023-03-27T15:16:06.680Z,2.53
2023-03-27T15:18:36.475Z,4.07
2023-03-27T15:21:06.331Z,1.90
2023-03-27T15:23:40.077Z,3.43
2023-03-27T15:26:12.134Z,5.87
2023-03-27T15:28:42.402Z,3.23
2023-03-27T15:31:10.953Z,3.23
2023-03-27T15:33:42.791Z,2.07
2023-03-27T15:36:26.438Z,4.70
2023-03-27T15:38:56.248Z,5.93
2023-03-27T15:41:44.055Z,4.60
2023-03-27T15:44:14.589Z,6.17
2023-03-27T15:46:48.877Z,2.53
2023-03-27T15:49:22.021Z,2.10
2023-03-27T15:51:49.871Z,2.07
2023-03-27T15:54:36.172Z,4.23
2023-03-27T15:57:14.871Z,4.60
2023-03-27T15:59:52.082Z,3.20
2023-03-27T16:02:21.542Z,4.27
2023-03-27T16:04:53.117Z,2.50
2023-03-27T16:07:23.572Z,5.97
2023-03-27T16:09:55.238Z,2.87
2023-03-27T16:12:28.299Z,2.43
2023-03-27T16:14:58.256Z,13.83
2023-03-27T16:17:34.666Z,3.97
2023-03-27T16:20:07.430Z,4.03
2023-03-27T16:22:37.242Z,3.80
2023-03-27T16:25:08.655Z,2.00
2023-03-27T16:27:38.871Z,3.40
2023-03-27T16:30:09.230Z,5.17
2023-03-27T16:32:37.198Z,5.27
2023-03-27T16:35:05.371Z,3.57
2023-03-27T16:37:33.214Z,6.60
2023-03-27T16:40:01.045Z,5.40
2023-03-27T16:42:30.420Z,3.80
2023-03-27T16:44:58.165Z,4.97
2023-03-27T16:47:25.992Z,2.10
2023-03-27T16:50:10.408Z,2.67
2023-03-27T16:52:39.510Z,3.03
2023-03-27T16:55:08.389Z,5.67
2023-03-27T16:57:37.583Z,3.83
2023-03-27T17:00:06.887Z,2.77
2023-03-27T17:02:36.442Z,5.17
2023-03-27T17:05:04.714Z,1.97
2023-03-27T17:07:32.614Z,4.37
2023-03-27T17:10:00.940Z,3.93
2023-03-27T17:12:29.909Z,4.33
2023-03-27T17:14:59.053Z,2.67
2023-03-27T17:17:27.539Z,6.13
2023-03-27T17:19:55.487Z,2.87
2023-03-27T17:22:23.286Z,6.03
2023-03-27T17:24:56.761Z,2.23
2023-03-27T17:27:26.722Z,2.30
2023-03-27T17:29:55.637Z,2.17
2023-03-27T17:32:25.553Z,3.57
2023-03-27T17:34:53.560Z,1.97
2023-03-27T17:37:21.678Z,2.90
2023-03-27T17:39:49.524Z,5.00
2023-03-27T17:42:17.420Z,3.03
2023-03-27T17:44:45.672Z,2.40
2023-03-27T17:47:13.879Z,3.03
2023-03-27T17:49:43.265Z,4.77
2023-03-27T17:52:12.071Z,2.20
2023-03-27T17:54:40.298Z,5.47
2023-03-27T17:57:08.338Z,6.03
2023-03-27T17:59:36.608Z,3.90
2023-03-27T18:02:04.654Z,5.73
2023-03-27T18:04:33.195Z,6.77
2023-03-27T18:07:02.339Z,4.10
2023-03-27T18:09:30.441Z,15.10
2023-03-27T18:11:58.182Z,6.77
2023-03-27T18:14:26.202Z,5.17
2023-03-27T18:16:54.061Z,8.00
2023-03-27T18:19:24.093Z,5.00
2023-03-27T18:21:51.850Z,5.93
2023-03-27T18:24:21.009Z,10.50
2023-03-27T18:26:49.066Z,5.27
2023-03-27T18:29:16.888Z,4.83
2023-03-27T18:31:44.996Z,6.17
2023-03-27T18:34:12.796Z,3.33
2023-03-27T18:36:40.642Z,8.30
2023-03-27T18:39:08.554Z,2.83
2023-03-27T18:41:39.634Z,4.57
2023-03-27T18:44:07.536Z,3.30
2023-03-27T18:46:35.294Z,3.23
2023-03-27T18:49:13.496Z,8.20
2023-03-27T18:51:49.573Z,3.30
2023-03-27T18:54:17.395Z,3.73
2023-03-27T18:56:46.704Z,4.47
2023-03-27T18:59:14.528Z,6.20
2023-03-27T19:01:42.281Z,3.77
2023-03-27T19:04:10.976Z,2.87
2023-03-27T19:06:39.023Z,4.77
2023-03-27T19:09:06.953Z,4.33
2023-03-27T19:11:34.698Z,5.00
2023-03-27T19:14:03.929Z,3.43
2023-03-27T19:16:32.160Z,3.77
2023-03-27T19:18:59.920Z,3.57
2023-03-27T19:21:27.718Z,4.47
2023-03-27T19:23:55.752Z,5.03
2023-03-27T19:26:23.544Z,3.40
2023-03-27T19:28:51.448Z,3.93
2023-03-27T19:31:20.862Z,5.43
2023-03-27T19:33:48.770Z,6.10
2023-03-27T19:36:17.148Z,3.23
2023-03-27T19:38:45.142Z,7.57
2023-03-27T19:41:12.893Z,6.30
2023-03-27T19:43:40.671Z,3.20
2023-03-27T19:46:18.530Z,4.90
2023-03-27T19:48:49.677Z,4.37
2023-03-27T19:51:17.429Z,3.90
2023-03-27T19:53:45.185Z,7.57
2023-03-27T19:56:12.926Z,3.63
2023-03-27T19:58:44.178Z,8.03
2023-03-27T20:01:11.979Z,7.67
2023-03-27T20:03:39.973Z,7.47
2023-03-27T20:06:13.379Z,9.33
2023-03-27T20:08:42.926Z,7.77
2023-03-27T20:11:10.657Z,5.87
2023-03-27T20:13:52.947Z,4.60
2023-03-27T20:16:22.295Z,4.23
2023-03-27T20:18:55.308Z,5.27
2023-03-27T20:21:25.664Z,3.60
2023-03-27T20:23:54.826Z,2.20
2023-03-27T20:26:23.509Z,5.97
2023-03-27T20:28:52.057Z,9.80
2023-03-27T20:31:20.682Z,4.43
2023-03-27T20:33:48.755Z,8.20
2023-03-27T20:36:19.746Z,4.87
2023-03-27T20:38:48.929Z,5.50
2023-03-27T20:41:16.897Z,9.97
2023-03-27T20:43:46.915Z,6.33
2023-03-27T20:46:15.175Z,7.13
2023-03-27T20:48:54.337Z,9.63
2023-03-27T20:51:24.256Z,5.70
2023-03-27T20:53:58.099Z,4.10
2023-03-27T20:56:26.217Z,6.93
2023-03-27T20:58:54.013Z,4.47
2023-03-27T21:01:27.883Z,5.63
2023-03-27T21:03:58.451Z,5.10
2023-03-27T21:06:26.543Z,5.57
2023-03-27T21:08:55.918Z,4.63
2023-03-27T21:11:23.659Z,4.67
2023-03-27T21:13:51.520Z,5.60
2023-03-27T21:16:19.481Z,8.97
2023-03-27T21:18:47.194Z,4.77
2023-03-27T21:21:15.009Z,4.57
2023-03-27T21:23:42.704Z,4.97
2023-03-27T21:26:11.830Z,5.87
2023-03-27T21:28:39.667Z,3.33
2023-03-27T21:31:08.424Z,10.97
2023-03-27T21:33:36.205Z,11.27
2023-03-27T21:36:04.852Z,11.23
2023-03-27T21:38:32.646Z,15.07
2023-03-27T21:41:02.366Z,27.87
2023-03-27T21:43:31.760Z,7.20
2023-03-27T21:46:01.891Z,11.17
2023-03-27T21:48:30.227Z,4.90
2023-03-27T21:51:01.319Z,6.20
2023-03-27T21:53:29.430Z,5.97
2023-03-27T21:55:57.649Z,6.47
2023-03-27T21:58:25.853Z,4.97
2023-03-27T22:00:57.231Z,7.77
2023-03-27T22:03:25.746Z,6.10
2023-03-27T22:06:08.030Z,8.20
2023-03-27T22:08:39.056Z,9.93
2023-03-27T22:11:07.255Z,6.20
2023-03-27T22:13:35.906Z,4.37
2023-03-27T22:16:08.659Z,6.57
2023-03-27T22:18:36.650Z,3.27
2023-03-27T22:21:16.491Z,5.93
2023-03-27T22:23:44.415Z,7.23
2023-03-27T22:26:12.613Z,8.43
2023-03-27T22:28:40.375Z,5.57
2023-03-27T22:31:10.012Z,5.43
2023-03-27T22:33:38.135Z,8.73
2023-03-27T22:36:06.873Z,4.87
2023-03-27T22:38:35.312Z,5.50
2023-03-27T22:41:05.886Z,5.10
2023-03-27T22:43:34.208Z,9.07
2023-03-27T22:46:06.492Z,5.93
2023-03-27T22:48:36.228Z,7.43
2023-03-27T22:51:04.349Z,11.40
2023-03-27T22:53:32.806Z,6.53
2023-03-27T22:56:01.708Z,3.43
2023-03-27T22:58:30.539Z,10.87
2023-03-27T23:00:58.767Z,7.03
2023-03-27T23:03:28.307Z,6.53
2023-03-27T23:05:57.925Z,6.60
2023-03-27T23:08:28.578Z,6.37
2023-03-27T23:10:57.351Z,8.07
2023-03-27T23:13:25.540Z,6.13
2023-03-27T23:15:53.446Z,6.73
2023-03-27T23:18:23.948Z,6.97
2023-03-27T23:20:55.158Z,4.57
2023-03-27T23:23:24.666Z,5.27
2023-03-27T23:25:52.435Z,5.77
2023-03-27T23:28:20.575Z,6.93
2023-03-27T23:30:54.005Z,7.53
2023-03-27T23:33:22.760Z,12.47
2023-03-27T23:35:50.617Z,7.90
2023-03-27T23:38:18.419Z,6.33
2023-03-27T23:40:47.448Z,7.60
2023-03-27T23:43:15.174Z,7.87
2023-03-27T23:45:44.141Z,7.67
2023-03-27T23:48:11.900Z,5.13
2023-03-27T23:50:39.635Z,7.70
2023-03-27T23:53:07.418Z,8.93
2023-03-27T23:55:35.294Z,12.07
2023-03-27T23:58:04.405Z,6.33
